sensor_id;sensor_type;location;lat;lon;timestamp;pressure;altitude;pressure_sealevel;temperature;humidity
51526;BME280;37611;51.794;21.590;2023-04-20T00:03:17;100221.29;;;8.03;100.00
51526;BME280;37611;51.794;21.590;2023-04-20T00:07:21;100223.00;;;7.99;100.00
51526;BME280;37611;51.794;21.590;2023-04-20T00:11:26;100228.06;;;7.99;100.00
51526;BME280;37611;51.794;21.590;2023-04-20T00:15:28;100230.04;;;8.01;100.00
51526;BME280;37611;51.794;21.590;2023-04-20T00:19:30;100224.78;;;8.03;100.00
51526;BME280;37611;51.794;21.590;2023-04-20T00:23:33;100222.28;;;8.06;100.00
51526;BME280;37611;51.794;21.590;2023-04-20T00:27:35;100224.80;;;8.11;100.00
51526;BME280;37611;51.794;21.590;2023-04-20T00:31:37;100223.16;;;8.16;100.00
51526;BME280;37611;51.794;21.590;2023-04-20T00:35:38;100222.35;;;8.19;100.00
51526;BME280;37611;51.794;21.590;2023-04-20T00:39:40;100223.80;;;8.23;100.00
51526;BME280;37611;51.794;21.590;2023-04-20T00:43:51;100225.09;;;8.26;100.00
51526;BME280;37611;51.794;21.590;2023-04-20T00:47:53;100223.69;;;8.28;100.00
51526;BME280;37611;51.794;21.590;2023-04-20T00:51:57;100226.39;;;8.31;100.00
51526;BME280;37611;51.794;21.590;2023-04-20T00:55:59;100230.95;;;8.33;100.00
51526;BME280;37611;51.794;21.590;2023-04-20T01:00:00;100228.49;;;8.33;100.00
51526;BME280;37611;51.794;21.590;2023-04-20T01:04:02;100223.45;;;8.35;100.00
51526;BME280;37611;51.794;21.590;2023-04-20T01:08:04;100223.17;;;8.36;100.00
51526;BME280;37611;51.794;21.590;2023-04-20T01:12:06;100221.25;;;8.39;100.00
51526;BME280;37611;51.794;21.590;2023-04-20T01:16:08;100218.67;;;8.42;100.00
51526;BME280;37611;51.794;21.590;2023-04-20T01:20:10;100220.47;;;8.43;100.00
51526;BME280;37611;51.794;21.590;2023-04-20T01:24:15;100219.66;;;8.45;100.00
51526;BME280;37611;51.794;21.590;2023-04-20T01:28:17;100214.30;;;8.46;100.00
51526;BME280;37611;51.794;21.590;2023-04-20T01:32:18;100209.66;;;8.47;100.00
51526;BME280;37611;51.794;21.590;2023-04-20T01:36:20;100202.79;;;8.50;100.00
51526;BME280;37611;51.794;21.590;2023-04-20T01:40:22;100205.86;;;8.51;100.00
51526;BME280;37611;51.794;21.590;2023-04-20T01:44:23;100207.67;;;8.50;100.00
51526;BME280;37611;51.794;21.590;2023-04-20T01:48:25;100205.11;;;8.51;100.00
51526;BME280;37611;51.794;21.590;2023-04-20T01:52:27;100209.80;;;8.50;100.00
51526;BME280;37611;51.794;21.590;2023-04-20T01:56:29;100208.52;;;8.51;100.00
51526;BME280;37611;51.794;21.590;2023-04-20T02:00:31;100207.64;;;8.49;100.00
51526;BME280;37611;51.794;21.590;2023-04-20T02:04:32;100213.92;;;8.49;100.00
51526;BME280;37611;51.794;21.590;2023-04-20T02:08:34;100217.77;;;8.51;100.00
51526;BME280;37611;51.794;21.590;2023-04-20T02:12:36;100211.78;;;8.55;100.00
51526;BME280;37611;51.794;21.590;2023-04-20T02:16:38;100208.45;;;8.57;100.00
51526;BME280;37611;51.794;21.590;2023-04-20T02:20:39;100206.23;;;8.57;100.00
51526;BME280;37611;51.794;21.590;2023-04-20T02:24:41;100202.20;;;8.55;100.00
51526;BME280;37611;51.794;21.590;2023-04-20T02:28:44;100204.81;;;8.53;100.00
51526;BME280;37611;51.794;21.590;2023-04-20T02:32:46;100203.48;;;8.50;100.00
51526;BME280;37611;51.794;21.590;2023-04-20T02:36:48;100205.92;;;8.48;100.00
51526;BME280;37611;51.794;21.590;2023-04-20T02:40:49;100207.11;;;8.45;100.00
51526;BME280;37611;51.794;21.590;2023-04-20T02:44:51;100204.31;;;8.39;100.00
51526;BME280;37611;51.794;21.590;2023-04-20T02:48:53;100205.85;;;8.32;100.00
51526;BME280;37611;51.794;21.590;2023-04-20T02:52:56;100206.96;;;8.28;100.00
51526;BME280;37611;51.794;21.590;2023-04-20T02:56:57;100212.31;;;8.26;100.00
51526;BME280;37611;51.794;21.590;2023-04-20T03:01:00;100210.17;;;8.25;100.00
51526;BME280;37611;51.794;21.590;2023-04-20T03:05:02;100216.05;;;8.24;100.00
51526;BME280;37611;51.794;21.590;2023-04-20T03:09:05;100215.23;;;8.23;100.00
51526;BME280;37611;51.794;21.590;2023-04-20T03:13:09;100215.48;;;8.24;100.00
51526;BME280;37611;51.794;21.590;2023-04-20T03:17:11;100215.77;;;8.25;100.00
51526;BME280;37611;51.794;21.590;2023-04-20T03:21:12;100212.85;;;8.26;100.00
51526;BME280;37611;51.794;21.590;2023-04-20T03:25:15;100215.79;;;8.26;100.00
51526;BME280;37611;51.794;21.590;2023-04-20T03:29:17;100217.32;;;8.27;100.00
51526;BME280;37611;51.794;21.590;2023-04-20T03:33:18;100220.38;;;8.28;100.00
51526;BME280;37611;51.794;21.590;2023-04-20T03:37:20;100220.24;;;8.30;100.00
51526;BME280;37611;51.794;21.590;2023-04-20T03:41:22;100218.83;;;8.32;100.00
51526;BME280;37611;51.794;21.590;2023-04-20T03:45:23;100225.69;;;8.33;100.00
51526;BME280;37611;51.794;21.590;2023-04-20T03:49:28;100227.58;;;8.36;100.00
51526;BME280;37611;51.794;21.590;2023-04-20T03:53:30;100227.76;;;8.40;100.00
51526;BME280;37611;51.794;21.590;2023-04-20T03:57:32;100232.23;;;8.45;100.00
51526;BME280;37611;51.794;21.590;2023-04-20T04:01:35;100231.98;;;8.50;100.00
51526;BME280;37611;51.794;21.590;2023-04-20T04:05:41;100234.08;;;8.53;100.00
51526;BME280;37611;51.794;21.590;2023-04-20T04:09:43;100235.41;;;8.56;100.00
51526;BME280;37611;51.794;21.590;2023-04-20T04:13:45;100234.92;;;8.60;100.00
51526;BME280;37611;51.794;21.590;2023-04-20T04:17:47;100234.80;;;8.64;100.00
51526;BME280;37611;51.794;21.590;2023-04-20T04:21:49;100236.44;;;8.69;100.00
51526;BME280;37611;51.794;21.590;2023-04-20T04:25:51;100238.41;;;8.72;100.00
51526;BME280;37611;51.794;21.590;2023-04-20T04:29:52;100244.13;;;8.75;100.00
51526;BME280;37611;51.794;21.590;2023-04-20T04:33:54;100250.32;;;8.75;100.00
51526;BME280;37611;51.794;21.590;2023-04-20T04:37:56;100250.81;;;8.76;100.00
51526;BME280;37611;51.794;21.590;2023-04-20T04:41:58;100256.82;;;8.77;100.00
51526;BME280;37611;51.794;21.590;2023-04-20T04:46:08;100263.08;;;8.79;100.00
51526;BME280;37611;51.794;21.590;2023-04-20T04:50:10;100262.98;;;8.86;100.00
51526;BME280;37611;51.794;21.590;2023-04-20T04:54:13;100264.48;;;8.94;100.00
51526;BME280;37611;51.794;21.590;2023-04-20T04:58:15;100271.74;;;9.00;100.00
51526;BME280;37611;51.794;21.590;2023-04-20T05:02:16;100271.05;;;9.06;100.00
51526;BME280;37611;51.794;21.590;2023-04-20T05:06:18;100275.91;;;9.16;100.00
51526;BME280;37611;51.794;21.590;2023-04-20T05:10:20;100277.20;;;9.27;100.00
51526;BME280;37611;51.794;21.590;2023-04-20T05:14:21;100278.58;;;9.39;100.00
51526;BME280;37611;51.794;21.590;2023-04-20T05:18:23;100281.77;;;9.52;100.00
51526;BME280;37611;51.794;21.590;2023-04-20T05:22:25;100286.77;;;9.66;100.00
51526;BME280;37611;51.794;21.590;2023-04-20T05:26:27;100289.08;;;9.76;100.00
51526;BME280;37611;51.794;21.590;2023-04-20T05:30:28;100289.20;;;9.84;100.00
51526;BME280;37611;51.794;21.590;2023-04-20T05:34:30;100294.41;;;9.92;100.00
51526;BME280;37611;51.794;21.590;2023-04-20T05:38:32;100294.15;;;10.02;100.00
51526;BME280;37611;51.794;21.590;2023-04-20T05:42:34;100296.73;;;10.11;100.00
51526;BME280;37611;51.794;21.590;2023-04-20T05:46:35;100302.72;;;10.22;100.00
51526;BME280;37611;51.794;21.590;2023-04-20T05:50:37;100300.09;;;10.35;100.00
51526;BME280;37611;51.794;21.590;2023-04-20T05:54:39;100303.48;;;10.53;100.00
51526;BME280;37611;51.794;21.590;2023-04-20T05:58:41;100308.80;;;10.75;100.00
51526;BME280;37611;51.794;21.590;2023-04-20T06:02:43;100318.88;;;10.97;100.00
51526;BME280;37611;51.794;21.590;2023-04-20T06:06:44;100326.44;;;11.19;100.00
51526;BME280;37611;51.794;21.590;2023-04-20T06:10:46;100329.60;;;11.42;100.00
51526;BME280;37611;51.794;21.590;2023-04-20T06:14:48;100332.19;;;11.64;100.00
51526;BME280;37611;51.794;21.590;2023-04-20T06:18:50;100330.30;;;11.87;99.71
51526;BME280;37611;51.794;21.590;2023-04-20T06:22:51;100338.52;;;12.12;98.60
51526;BME280;37611;51.794;21.590;2023-04-20T06:26:53;100341.78;;;12.48;97.88
51526;BME280;37611;51.794;21.590;2023-04-20T06:30:55;100338.77;;;12.82;95.39
51526;BME280;37611;51.794;21.590;2023-04-20T06:34:57;100339.30;;;13.28;94.42
51526;BME280;37611;51.794;21.590;2023-04-20T06:38:58;100341.60;;;13.78;90.14
51526;BME280;37611;51.794;21.590;2023-04-20T06:43:00;100344.27;;;14.34;87.39
51526;BME280;37611;51.794;21.590;2023-04-20T06:47:02;100345.40;;;14.88;84.81
51526;BME280;37611;51.794;21.590;2023-04-20T06:51:03;100346.48;;;15.17;81.13
51526;BME280;37611;51.794;21.590;2023-04-20T06:55:06;100349.02;;;15.28;79.36
51526;BME280;37611;51.794;21.590;2023-04-20T06:59:08;100353.39;;;15.20;79.33
51526;BME280;37611;51.794;21.590;2023-04-20T07:03:09;100353.52;;;15.16;79.52
51526;BME280;37611;51.794;21.590;2023-04-20T07:07:11;100354.21;;;14.93;79.35
51526;BME280;37611;51.794;21.590;2023-04-20T07:11:13;100355.20;;;14.72;80.07
51526;BME280;37611;51.794;21.590;2023-04-20T07:15:15;100353.71;;;14.65;80.99
51526;BME280;37611;51.794;21.590;2023-04-20T07:19:17;100352.45;;;14.69;81.81
51526;BME280;37611;51.794;21.590;2023-04-20T07:23:19;100352.91;;;14.89;79.86
51526;BME280;37611;51.794;21.590;2023-04-20T07:27:21;100351.77;;;15.14;78.25
51526;BME280;37611;51.794;21.590;2023-04-20T07:31:22;100354.78;;;15.27;78.11
51526;BME280;37611;51.794;21.590;2023-04-20T07:35:24;100358.14;;;15.47;77.99
51526;BME280;37611;51.794;21.590;2023-04-20T07:39:25;100359.09;;;15.89;77.72
51526;BME280;37611;51.794;21.590;2023-04-20T07:43:29;100357.60;;;16.31;76.92
51526;BME280;37611;51.794;21.590;2023-04-20T07:47:34;100354.10;;;16.64;76.61
51526;BME280;37611;51.794;21.590;2023-04-20T07:51:36;100357.98;;;16.91;75.98
51526;BME280;37611;51.794;21.590;2023-04-20T07:55:38;100358.15;;;17.01;73.96
51526;BME280;37611;51.794;21.590;2023-04-20T07:59:40;100357.85;;;17.12;72.11
51526;BME280;37611;51.794;21.590;2023-04-20T08:03:41;100359.70;;;17.27;71.00
51526;BME280;37611;51.794;21.590;2023-04-20T08:07:43;100360.27;;;17.53;70.34
51526;BME280;37611;51.794;21.590;2023-04-20T08:11:45;100357.58;;;17.57;65.28
51526;BME280;37611;51.794;21.590;2023-04-20T08:15:47;100352.73;;;17.59;65.94
51526;BME280;37611;51.794;21.590;2023-04-20T08:19:49;100358.00;;;17.74;65.36
51526;BME280;37611;51.794;21.590;2023-04-20T08:23:51;100363.02;;;17.77;64.38
51526;BME280;37611;51.794;21.590;2023-04-20T08:27:52;100362.60;;;17.87;65.04
51526;BME280;37611;51.794;21.590;2023-04-20T08:31:54;100368.76;;;18.16;64.46
51526;BME280;37611;51.794;21.590;2023-04-20T08:35:56;100367.73;;;18.24;60.79
51526;BME280;37611;51.794;21.590;2023-04-20T08:39:58;100363.48;;;18.40;62.17
51526;BME280;37611;51.794;21.590;2023-04-20T08:43:59;100364.54;;;18.42;59.57
51526;BME280;37611;51.794;21.590;2023-04-20T08:48:06;100363.10;;;18.41;58.54
51526;BME280;37611;51.794;21.590;2023-04-20T08:52:10;100363.69;;;18.44;57.77
51526;BME280;37611;51.794;21.590;2023-04-20T08:56:12;100365.65;;;18.36;57.71
51526;BME280;37611;51.794;21.590;2023-04-20T09:00:14;100362.42;;;18.27;57.58
51526;BME280;37611;51.794;21.590;2023-04-20T09:04:18;100365.85;;;18.30;57.71
51526;BME280;37611;51.794;21.590;2023-04-20T09:08:20;100359.23;;;18.27;56.34
51526;BME280;37611;51.794;21.590;2023-04-20T09:12:22;100359.14;;;18.11;55.33
51526;BME280;37611;51.794;21.590;2023-04-20T09:16:25;100353.21;;;18.04;54.96
51526;BME280;37611;51.794;21.590;2023-04-20T09:20:31;100354.33;;;18.02;54.03
51526;BME280;37611;51.794;21.590;2023-04-20T09:24:35;100357.38;;;18.04;53.58
51526;BME280;37611;51.794;21.590;2023-04-20T09:28:37;100353.48;;;18.07;51.83
51526;BME280;37611;51.794;21.590;2023-04-20T09:32:39;100352.52;;;18.10;50.18
51526;BME280;37611;51.794;21.590;2023-04-20T09:36:44;100354.65;;;18.10;45.69
51526;BME280;37611;51.794;21.590;2023-04-20T09:40:50;100352.78;;;18.06;43.82
51526;BME280;37611;51.794;21.590;2023-04-20T09:44:53;100352.17;;;18.12;43.58
51526;BME280;37611;51.794;21.590;2023-04-20T09:48:55;100352.05;;;18.12;43.67
51526;BME280;37611;51.794;21.590;2023-04-20T09:52:59;100352.38;;;18.19;43.24
51526;BME280;37611;51.794;21.590;2023-04-20T09:57:00;100350.85;;;18.34;43.02
51526;BME280;37611;51.794;21.590;2023-04-20T10:01:02;100352.91;;;18.48;42.80
51526;BME280;37611;51.794;21.590;2023-04-20T10:05:05;100350.63;;;18.47;42.09
51526;BME280;37611;51.794;21.590;2023-04-20T10:09:07;100347.01;;;18.52;41.38
51526;BME280;37611;51.794;21.590;2023-04-20T10:13:09;100344.09;;;18.51;41.17
51526;BME280;37611;51.794;21.590;2023-04-20T10:17:11;100340.98;;;18.59;39.55
51526;BME280;37611;51.794;21.590;2023-04-20T10:21:12;100342.48;;;18.57;37.85
51526;BME280;37611;51.794;21.590;2023-04-20T10:25:17;100333.91;;;18.52;37.97
51526;BME280;37611;51.794;21.590;2023-04-20T10:29:27;100333.41;;;18.45;37.26
51526;BME280;37611;51.794;21.590;2023-04-20T10:33:29;100330.02;;;18.45;38.00
51526;BME280;37611;51.794;21.590;2023-04-20T10:37:31;100325.60;;;18.53;37.94
51526;BME280;37611;51.794;21.590;2023-04-20T10:41:32;100320.74;;;18.55;38.01
51526;BME280;37611;51.794;21.590;2023-04-20T10:45:35;100320.11;;;18.58;38.32
51526;BME280;37611;51.794;21.590;2023-04-20T10:49:38;100323.34;;;18.58;37.77
51526;BME280;37611;51.794;21.590;2023-04-20T10:53:40;100321.64;;;18.47;37.50
51526;BME280;37611;51.794;21.590;2023-04-20T10:57:45;100311.79;;;18.50;38.22
51526;BME280;37611;51.794;21.590;2023-04-20T11:01:49;100313.77;;;18.62;37.87
51526;BME280;37611;51.794;21.590;2023-04-20T11:05:51;100311.89;;;18.51;36.51
51526;BME280;37611;51.794;21.590;2023-04-20T11:09:53;100308.62;;;18.40;36.33
51526;BME280;37611;51.794;21.590;2023-04-20T11:18:08;100297.94;;;18.61;33.91
51526;BME280;37611;51.794;21.590;2023-04-20T11:22:20;100292.52;;;18.70;33.45
51526;BME280;37611;51.794;21.590;2023-04-20T11:26:33;100292.56;;;18.78;33.22
51526;BME280;37611;51.794;21.590;2023-04-20T11:30:41;100290.06;;;18.88;33.54
51526;BME280;37611;51.794;21.590;2023-04-20T11:34:43;100290.86;;;19.04;32.85
51526;BME280;37611;51.794;21.590;2023-04-20T11:38:45;100293.23;;;18.83;32.11
51526;BME280;37611;51.794;21.590;2023-04-20T11:42:46;100295.36;;;18.54;33.48
51526;BME280;37611;51.794;21.590;2023-04-20T11:46:48;100295.96;;;18.45;33.60
51526;BME280;37611;51.794;21.590;2023-04-20T11:50:50;100291.83;;;18.59;32.90
51526;BME280;37611;51.794;21.590;2023-04-20T11:54:52;100282.87;;;18.82;31.91
51526;BME280;37611;51.794;21.590;2023-04-20T11:58:54;100274.51;;;18.92;31.74
51526;BME280;37611;51.794;21.590;2023-04-20T12:02:56;100279.14;;;18.90;31.84
51526;BME280;37611;51.794;21.590;2023-04-20T12:06:57;100280.37;;;18.81;31.37
51526;BME280;37611;51.794;21.590;2023-04-20T12:10:59;100277.23;;;18.75;31.42
51526;BME280;37611;51.794;21.590;2023-04-20T12:15:01;100274.72;;;18.72;31.49
51526;BME280;37611;51.794;21.590;2023-04-20T12:19:03;100269.90;;;18.86;31.38
51526;BME280;37611;51.794;21.590;2023-04-20T12:23:05;100267.05;;;19.02;30.87
51526;BME280;37611;51.794;21.590;2023-04-20T12:27:06;100266.25;;;19.10;30.57
51526;BME280;37611;51.794;21.590;2023-04-20T12:31:08;100262.81;;;19.14;30.42
51526;BME280;37611;51.794;21.590;2023-04-20T12:35:10;100258.61;;;19.22;29.29
51526;BME280;37611;51.794;21.590;2023-04-20T12:39:11;100254.62;;;19.13;29.43
51526;BME280;37611;51.794;21.590;2023-04-20T12:43:13;100253.38;;;19.28;29.69
51526;BME280;37611;51.794;21.590;2023-04-20T12:47:15;100247.86;;;19.46;29.36
51526;BME280;37611;51.794;21.590;2023-04-20T12:51:16;100248.77;;;19.42;29.35
51526;BME280;37611;51.794;21.590;2023-04-20T12:55:18;100246.91;;;19.29;29.49
51526;BME280;37611;51.794;21.590;2023-04-20T12:59:20;100245.56;;;19.31;29.96
51526;BME280;37611;51.794;21.590;2023-04-20T13:03:21;100246.52;;;19.21;29.61
51526;BME280;37611;51.794;21.590;2023-04-20T13:07:23;100245.56;;;19.07;29.38
51526;BME280;37611;51.794;21.590;2023-04-20T13:11:25;100241.53;;;19.04;29.81
51526;BME280;37611;51.794;21.590;2023-04-20T13:15:27;100236.17;;;19.04;30.02
51526;BME280;37611;51.794;21.590;2023-04-20T13:19:29;100235.16;;;18.91;30.29
51526;BME280;37611;51.794;21.590;2023-04-20T13:23:31;100233.32;;;18.78;30.15
51526;BME280;37611;51.794;21.590;2023-04-20T13:27:33;100229.19;;;18.80;30.76
51526;BME280;37611;51.794;21.590;2023-04-20T13:31:34;100224.95;;;19.00;29.82
51526;BME280;37611;51.794;21.590;2023-04-20T13:35:37;100227.46;;;19.11;29.20
51526;BME280;37611;51.794;21.590;2023-04-20T13:39:39;100229.07;;;19.11;29.50
51526;BME280;37611;51.794;21.590;2023-04-20T13:43:42;100228.03;;;19.08;29.55
51526;BME280;37611;51.794;21.590;2023-04-20T13:47:44;100225.15;;;19.02;29.54
51526;BME280;37611;51.794;21.590;2023-04-20T13:51:46;100222.91;;;19.06;30.25
51526;BME280;37611;51.794;21.590;2023-04-20T13:55:47;100219.65;;;19.16;31.57
51526;BME280;37611;51.794;21.590;2023-04-20T13:59:49;100217.23;;;19.18;31.43
51526;BME280;37611;51.794;21.590;2023-04-20T14:03:51;100224.95;;;19.06;31.11
51526;BME280;37611;51.794;21.590;2023-04-20T14:07:53;100228.57;;;18.93;30.92
51526;BME280;37611;51.794;21.590;2023-04-20T14:11:55;100232.38;;;18.72;30.08
51526;BME280;37611;51.794;21.590;2023-04-20T14:15:57;100237.84;;;18.57;30.67
51526;BME280;37611;51.794;21.590;2023-04-20T14:19:59;100233.66;;;18.47;30.51
51526;BME280;37611;51.794;21.590;2023-04-20T14:24:01;100228.63;;;18.36;30.69
51526;BME280;37611;51.794;21.590;2023-04-20T14:28:03;100223.85;;;18.31;31.36
51526;BME280;37611;51.794;21.590;2023-04-20T14:32:04;100223.89;;;18.29;31.57
51526;BME280;37611;51.794;21.590;2023-04-20T14:36:06;100220.90;;;18.30;31.61
51526;BME280;37611;51.794;21.590;2023-04-20T14:40:09;100218.46;;;18.42;31.70
51526;BME280;37611;51.794;21.590;2023-04-20T14:44:11;100218.59;;;18.56;31.12
51526;BME280;37611;51.794;21.590;2023-04-20T14:48:13;100215.80;;;18.63;31.07
51526;BME280;37611;51.794;21.590;2023-04-20T14:52:14;100217.95;;;18.68;31.34
51526;BME280;37611;51.794;21.590;2023-04-20T14:56:16;100225.15;;;18.67;31.08
51526;BME280;37611;51.794;21.590;2023-04-20T15:00:18;100226.70;;;18.48;31.00
51526;BME280;37611;51.794;21.590;2023-04-20T15:04:20;100229.64;;;18.30;31.69
51526;BME280;37611;51.794;21.590;2023-04-20T15:08:22;100228.12;;;18.19;31.81
51526;BME280;37611;51.794;21.590;2023-04-20T15:12:24;100225.41;;;18.11;31.90
51526;BME280;37611;51.794;21.590;2023-04-20T15:16:26;100227.65;;;18.04;32.46
51526;BME280;37611;51.794;21.590;2023-04-20T15:20:27;100227.48;;;18.02;32.83
51526;BME280;37611;51.794;21.590;2023-04-20T15:24:29;100222.22;;;18.03;32.92
51526;BME280;37611;51.794;21.590;2023-04-20T15:28:31;100220.77;;;18.01;32.78
51526;BME280;37611;51.794;21.590;2023-04-20T15:32:32;100220.27;;;17.95;33.07
51526;BME280;37611;51.794;21.590;2023-04-20T15:36:34;100223.68;;;17.89;33.34
51526;BME280;37611;51.794;21.590;2023-04-20T15:40:36;100226.60;;;17.80;32.96
51526;BME280;37611;51.794;21.590;2023-04-20T15:44:39;100229.47;;;17.70;33.21
51526;BME280;37611;51.794;21.590;2023-04-20T15:48:41;100224.84;;;17.63;33.11
51526;BME280;37611;51.794;21.590;2023-04-20T15:52:45;100222.90;;;17.55;33.07
51526;BME280;37611;51.794;21.590;2023-04-20T15:56:49;100222.47;;;17.48;33.55
51526;BME280;37611;51.794;21.590;2023-04-20T16:00:51;100218.02;;;17.42;33.55
51526;BME280;37611;51.794;21.590;2023-04-20T16:04:53;100216.86;;;17.37;33.53
51526;BME280;37611;51.794;21.590;2023-04-20T16:08:55;100218.10;;;17.33;34.02
51526;BME280;37611;51.794;21.590;2023-04-20T16:12:58;100217.13;;;17.31;33.81
51526;BME280;37611;51.794;21.590;2023-04-20T16:17:00;100219.42;;;17.31;33.64
51526;BME280;37611;51.794;21.590;2023-04-20T16:21:05;100220.65;;;17.31;33.71
51526;BME280;37611;51.794;21.590;2023-04-20T16:25:07;100219.81;;;17.29;33.95
51526;BME280;37611;51.794;21.590;2023-04-20T16:29:10;100220.36;;;17.25;34.40
51526;BME280;37611;51.794;21.590;2023-04-20T16:33:11;100222.89;;;17.22;34.70
51526;BME280;37611;51.794;21.590;2023-04-20T16:37:13;100225.29;;;17.16;34.53
51526;BME280;37611;51.794;21.590;2023-04-20T16:41:15;100228.33;;;17.09;34.81
51526;BME280;37611;51.794;21.590;2023-04-20T16:45:18;100232.98;;;17.01;34.91
51526;BME280;37611;51.794;21.590;2023-04-20T16:49:20;100240.44;;;16.92;35.22
51526;BME280;37611;51.794;21.590;2023-04-20T16:53:21;100242.49;;;16.83;35.51
51526;BME280;37611;51.794;21.590;2023-04-20T16:57:23;100248.27;;;16.72;35.67
51526;BME280;37611;51.794;21.590;2023-04-20T17:01:25;100251.06;;;16.60;35.99
51526;BME280;37611;51.794;21.590;2023-04-20T17:05:26;100252.12;;;16.48;36.29
51526;BME280;37611;51.794;21.590;2023-04-20T17:09:28;100253.95;;;16.39;36.57
51526;BME280;37611;51.794;21.590;2023-04-20T17:13:31;100256.14;;;16.28;36.96
51526;BME280;37611;51.794;21.590;2023-04-20T17:17:34;100254.74;;;16.16;37.35
51526;BME280;37611;51.794;21.590;2023-04-20T17:21:36;100259.74;;;16.07;37.75
51526;BME280;37611;51.794;21.590;2023-04-20T17:25:37;100261.71;;;15.96;38.17
51526;BME280;37611;51.794;21.590;2023-04-20T17:29:39;100267.82;;;15.86;38.54
51526;BME280;37611;51.794;21.590;2023-04-20T17:33:43;100264.35;;;15.75;38.91
51526;BME280;37611;51.794;21.590;2023-04-20T17:37:45;100267.33;;;15.64;39.09
51526;BME280;37611;51.794;21.590;2023-04-20T17:41:47;100271.59;;;15.52;39.36
51526;BME280;37611;51.794;21.590;2023-04-20T17:45:48;100270.84;;;15.39;39.72
51526;BME280;37611;51.794;21.590;2023-04-20T17:49:50;100272.79;;;15.25;40.17
51526;BME280;37611;51.794;21.590;2023-04-20T17:53:52;100272.55;;;15.10;40.53
51526;BME280;37611;51.794;21.590;2023-04-20T17:57:54;100272.34;;;14.95;40.86
51526;BME280;37611;51.794;21.590;2023-04-20T18:01:55;100273.61;;;14.79;41.55
51526;BME280;37611;51.794;21.590;2023-04-20T18:05:57;100277.55;;;14.66;41.87
51526;BME280;37611;51.794;21.590;2023-04-20T18:09:59;100280.05;;;14.49;42.41
51526;BME280;37611;51.794;21.590;2023-04-20T18:14:00;100280.75;;;14.35;42.85
51526;BME280;37611;51.794;21.590;2023-04-20T18:18:02;100282.10;;;14.21;43.43
51526;BME280;37611;51.794;21.590;2023-04-20T18:22:04;100282.33;;;14.10;43.86
51526;BME280;37611;51.794;21.590;2023-04-20T18:26:07;100291.48;;;13.97;44.19
51526;BME280;37611;51.794;21.590;2023-04-20T18:30:11;100292.59;;;13.83;44.47
51526;BME280;37611;51.794;21.590;2023-04-20T18:34:14;100290.77;;;13.69;45.18
51526;BME280;37611;51.794;21.590;2023-04-20T18:38:16;100291.89;;;13.55;45.47
51526;BME280;37611;51.794;21.590;2023-04-20T18:42:18;100292.08;;;13.42;46.27
51526;BME280;37611;51.794;21.590;2023-04-20T18:46:19;100289.48;;;13.27;46.64
51526;BME280;37611;51.794;21.590;2023-04-20T18:50:21;100293.39;;;13.13;46.85
51526;BME280;37611;51.794;21.590;2023-04-20T18:54:23;100296.63;;;13.02;47.14
51526;BME280;37611;51.794;21.590;2023-04-20T18:58:24;100300.05;;;12.94;47.44
51526;BME280;37611;51.794;21.590;2023-04-20T19:02:26;100299.41;;;12.89;47.51
51526;BME280;37611;51.794;21.590;2023-04-20T19:06:28;100303.52;;;12.85;47.60
51526;BME280;37611;51.794;21.590;2023-04-20T19:10:30;100304.09;;;12.81;47.59
51526;BME280;37611;51.794;21.590;2023-04-20T19:14:32;100302.54;;;12.78;47.82
51526;BME280;37611;51.794;21.590;2023-04-20T19:18:34;100304.73;;;12.75;47.98
51526;BME280;37611;51.794;21.590;2023-04-20T19:22:35;100303.48;;;12.71;48.21
51526;BME280;37611;51.794;21.590;2023-04-20T19:26:37;100303.98;;;12.74;48.02
51526;BME280;37611;51.794;21.590;2023-04-20T19:30:39;100303.75;;;12.76;47.98
51526;BME280;37611;51.794;21.590;2023-04-20T19:34:41;100305.51;;;12.81;47.84
51526;BME280;37611;51.794;21.590;2023-04-20T19:38:42;100306.07;;;12.88;47.68
51526;BME280;37611;51.794;21.590;2023-04-20T19:42:44;100307.11;;;12.93;47.69
51526;BME280;37611;51.794;21.590;2023-04-20T19:46:47;100304.94;;;12.96;47.52
51526;BME280;37611;51.794;21.590;2023-04-20T19:50:50;100306.40;;;13.03;47.37
51526;BME280;37611;51.794;21.590;2023-04-20T19:54:52;100306.16;;;13.05;47.36
51526;BME280;37611;51.794;21.590;2023-04-20T19:58:54;100305.36;;;13.06;47.36
51526;BME280;37611;51.794;21.590;2023-04-20T20:02:55;100306.96;;;13.04;47.60
51526;BME280;37611;51.794;21.590;2023-04-20T20:06:57;100310.55;;;13.00;47.69
51526;BME280;37611;51.794;21.590;2023-04-20T20:10:59;100309.65;;;12.93;47.80
51526;BME280;37611;51.794;21.590;2023-04-20T20:15:01;100308.73;;;12.87;48.08
51526;BME280;37611;51.794;21.590;2023-04-20T20:19:04;100307.21;;;12.80;48.24
51526;BME280;37611;51.794;21.590;2023-04-20T20:23:06;100308.20;;;12.70;48.23
51526;BME280;37611;51.794;21.590;2023-04-20T20:27:08;100306.08;;;12.60;48.60
51526;BME280;37611;51.794;21.590;2023-04-20T20:31:10;100309.09;;;12.50;49.11
51526;BME280;37611;51.794;21.590;2023-04-20T20:35:12;100310.29;;;12.40;49.14
51526;BME280;37611;51.794;21.590;2023-04-20T20:39:14;100309.12;;;12.31;49.60
51526;BME280;37611;51.794;21.590;2023-04-20T20:43:16;100307.84;;;12.20;49.76
51526;BME280;37611;51.794;21.590;2023-04-20T20:47:19;100306.23;;;12.12;49.97
51526;BME280;37611;51.794;21.590;2023-04-20T20:51:21;100308.67;;;12.02;50.35
51526;BME280;37611;51.794;21.590;2023-04-20T20:55:22;100311.02;;;11.91;50.67